Flying Cat 3 — SX6671 — position and weather

sailwx.info

Track history (hours):
 
Tides and Currents Weather Stations Pressure Air Temp Water Temp Dewpoint Dewpoint Depression Visibility Wind Speed Wind Dir Waves Ship Positions

Flying Cat 3

Last reported at 2015-Sep-21 12:13 UTC. Time now 2016-Feb-08 06:09 UTC.
Position N 37°57' E 023°38'.
Warning: this ship's position is months out of date.

Length 48 m; draft 1.5 m.

Type: High speed craft. MMSI: 239552000.

Date/timePositionNaut miles runAvg speedWind from/ knotsBaromVisibWave heightAir tempDewpointWater temp
2015-Sep-21 12:13N 37°57' E 023°38'0 0.0
2015-Sep-21 11:28N 37°57' E 023°38'0 0.0
2015-Sep-21 10:28N 37°57' E 023°38'0 0.0
2015-Sep-21 09:31N 37°57' E 023°38'0 0.0
2015-Sep-21 08:31N 37°57' E 023°38'0 0.0
2015-Sep-21 07:31N 37°57' E 023°38'0 0.0
2015-Sep-21 06:31N 37°57' E 023°38'0 0.0
2015-Sep-21 05:28N 37°57' E 023°38'0 0.0
2015-Sep-21 04:31N 37°57' E 023°38'0 0.0
2015-Sep-21 03:31N 37°57' E 023°38'0 0.0
2015-Sep-21 02:31N 37°57' E 023°38'0 0.0
2015-Sep-21 01:31N 37°57' E 023°38'0 0.0
2015-Sep-21 00:28N 37°57' E 023°38'0 0.0
2015-Sep-20 23:28N 37°57' E 023°38'0 0.0
2015-Sep-20 22:31N 37°57' E 023°38'0 0.0
2015-Sep-20 21:31N 37°57' E 023°38'5 4.9
2015-Sep-20 20:33N 37°52' E 023°39'10 1.2
2015-Sep-20 12:33N 37°42' E 023°41'1514.7
2015-Sep-20 11:33N 37°57' E 023°38'0 0.0
2015-Sep-20 10:32N 37°57' E 023°38'0 0.0
2015-Sep-20 09:32N 37°57' E 023°38'0 0.0
2015-Sep-20 08:32N 37°57' E 023°38'0 0.0
2015-Sep-20 07:32N 37°57' E 023°38'0 0.0
2015-Sep-20 06:32N 37°57' E 023°38'0 0.0
2015-Sep-20 05:29N 37°57' E 023°38'0 0.0
2015-Sep-20 04:32N 37°57' E 023°38'0 0.0
2015-Sep-20 03:32N 37°57' E 023°38'0 0.0
2015-Sep-20 02:32N 37°57' E 023°38'0 0.0
2015-Sep-20 01:32N 37°57' E 023°38'0 0.0
2015-Sep-20 00:32N 37°57' E 023°38'0 0.0
2015-Sep-19 23:32N 37°57' E 023°38'0 0.0
2015-Sep-19 22:26N 37°57' E 023°38'0 0.0
2015-Sep-19 21:32N 37°57' E 023°38'4 3.8
2015-Sep-19 20:34N 37°53' E 023°39'12 1.4
2015-Sep-19 12:33N 37°42' E 023°41'1515.2
2015-Sep-19 11:33N 37°57' E 023°38'0 0.0
2015-Sep-19 10:32N 37°57' E 023°38'0 0.0
2015-Sep-19 09:32N 37°57' E 023°38'0 0.0
2015-Sep-19 08:32N 37°57' E 023°38'0 0.0
2015-Sep-19 07:32N 37°57' E 023°38'0 0.0
2015-Sep-19 06:32N 37°57' E 023°38'0 0.0
2015-Sep-19 05:32N 37°57' E 023°38'0 0.0
2015-Sep-19 04:32N 37°57' E 023°38'0 0.0
2015-Sep-19 03:32N 37°57' E 023°38'0 0.0
2015-Sep-19 02:32N 37°57' E 023°38'0 0.0
2015-Sep-19 01:29N 37°57' E 023°38'0 0.0
2015-Sep-19 00:26N 37°57' E 023°38'0 0.0
2015-Sep-18 23:32N 37°57' E 023°38'0 0.0
2015-Sep-18 22:23N 37°57' E 023°38'0 0.0
2015-Sep-18 21:32N 37°57' E 023°38'4 4.1
2015-Sep-18 20:34N 37°53' E 023°38'9 1.1
2015-Sep-18 12:33N 37°44' E 023°40'1312.8
2015-Sep-18 11:33N 37°57' E 023°38'0 0.0
2015-Sep-18 10:30N 37°57' E 023°38'0 0.0
2015-Sep-18 09:33N 37°57' E 023°38'0 0.0
2015-Sep-18 08:30N 37°57' E 023°38'0 0.0
2015-Sep-18 07:33N 37°57' E 023°38'0 0.0
2015-Sep-18 06:24N 37°57' E 023°38'0 0.0
2015-Sep-18 05:33N 37°57' E 023°38'0 0.0
2015-Sep-18 04:33N 37°57' E 023°38'0 0.0
2015-Sep-18 03:30N 37°57' E 023°38'0 0.0
2015-Sep-18 02:33N 37°57' E 023°38'0 0.0
2015-Sep-18 01:33N 37°57' E 023°38'0 0.0
2015-Sep-18 00:33N 37°57' E 023°38'0 0.0
2015-Sep-17 23:33N 37°57' E 023°38'0 0.0
2015-Sep-17 22:30N 37°57' E 023°38'0 0.0
2015-Sep-17 21:30N 37°57' E 023°38'4 4.8
2015-Sep-17 20:34N 37°52' E 023°38'9 1.1
2015-Sep-17 12:33N 37°43' E 023°41'1413.6
2015-Sep-17 11:34N 37°57' E 023°38'0 0.0
2015-Sep-17 08:30N 37°57' E 023°38'0 0.0
2015-Sep-17 07:30N 37°57' E 023°38'0 0.0
2015-Sep-17 06:30N 37°57' E 023°38'0 0.0
2015-Sep-17 05:33N 37°57' E 023°38'0 0.0
2015-Sep-17 04:30N 37°57' E 023°38'0 0.0
2015-Sep-17 03:27N 37°57' E 023°38'0 0.0
2015-Sep-17 02:30N 37°57' E 023°38'0 0.0
2015-Sep-17 01:30N 37°57' E 023°38'0 0.0
2015-Sep-17 00:33N 37°57' E 023°38'0 0.0
2015-Sep-16 23:33N 37°57' E 023°38'0 0.0
2015-Sep-16 22:33N 37°57' E 023°38'0 0.0
2015-Sep-16 21:33N 37°57' E 023°38'0 0.0
2015-Sep-16 20:33N 37°57' E 023°38'0 0.0
2015-Sep-16 19:30N 37°57' E 023°38'0 0.0
2015-Sep-16 18:33N 37°57' E 023°38'0 0.0
2015-Sep-16 17:33N 37°57' E 023°38'0 0.0
2015-Sep-16 16:30N 37°57' E 023°38'0 0.0
2015-Sep-16 15:30N 37°57' E 023°38'0 0.0
2015-Sep-16 14:33N 37°57' E 023°38'0 0.0
2015-Sep-16 13:24N 37°57' E 023°38'0 0.0
2015-Sep-16 12:33N 37°57' E 023°38'0 0.0
2015-Sep-16 11:33N 37°57' E 023°38'0 0.0
2015-Sep-16 10:33N 37°57' E 023°38'0 0.0
2015-Sep-16 09:33N 37°57' E 023°38'0 0.0
2015-Sep-16 08:33N 37°57' E 023°38'0 0.0
2015-Sep-16 07:30N 37°57' E 023°38'0 0.0
2015-Sep-16 06:27N 37°57' E 023°38'0 0.0
2015-Sep-16 05:33N 37°57' E 023°38'0 0.0
2015-Sep-16 04:30N 37°57' E 023°38'0 0.0
2015-Sep-16 03:30N 37°57' E 023°38'0 0.0
2015-Sep-16 02:33N 37°57' E 023°38'0 0.0
2015-Sep-16 01:33N 37°57' E 023°38'0 0.0
2015-Sep-16 00:33N 37°57' E 023°38'0 0.0
2015-Sep-15 23:33N 37°57' E 023°38'0 0.0
2015-Sep-15 22:30N 37°57' E 023°38'0 0.0
2015-Sep-15 21:33N 37°57' E 023°38'0 0.0
2015-Sep-15 20:33N 37°57' E 023°38'0 0.0
2015-Sep-15 19:33N 37°57' E 023°38'0 0.0
2015-Sep-15 18:33N 37°57' E 023°38'0 0.0
2015-Sep-15 17:30N 37°57' E 023°38'0 0.0
2015-Sep-15 16:33N 37°57' E 023°38'0 0.0
2015-Sep-15 15:33N 37°57' E 023°38'0 0.0
2015-Sep-15 14:33N 37°57' E 023°38'0 0.0
2015-Sep-15 13:33N 37°57' E 023°38'0 0.0
2015-Sep-15 12:33N 37°57' E 023°38'0 0.0
2015-Sep-15 11:33N 37°57' E 023°38'0 0.0
2015-Sep-15 10:33N 37°57' E 023°38'0 0.0
2015-Sep-15 09:30N 37°57' E 023°38'0 0.0
2015-Sep-15 08:33N 37°57' E 023°38'0 0.0
2015-Sep-15 07:33N 37°57' E 023°38'0 0.0
2015-Sep-15 06:33N 37°57' E 023°38'0 0.0
2015-Sep-15 05:33N 37°57' E 023°38'0 0.0
2015-Sep-15 04:33N 37°57' E 023°38'0 0.0
2015-Sep-15 03:24N 37°57' E 023°38'0 0.0
2015-Sep-15 02:33N 37°57' E 023°38'0 0.0
2015-Sep-15 01:33N 37°57' E 023°38'0 0.0
2015-Sep-15 00:33N 37°57' E 023°38'0 0.0
2015-Sep-14 23:30N 37°57' E 023°38'0 0.0
2015-Sep-14 22:33N 37°57' E 023°38'0 0.0
2015-Sep-14 21:30N 37°57' E 023°38'5 5.6
2015-Sep-14 20:33N 37°51' E 023°39'9 1.2
2015-Sep-14 12:33N 37°42' E 023°41'1514.8
2015-Sep-14 11:34N 37°57' E 023°38'0 0.0
2015-Sep-14 10:31N 37°57' E 023°38'0 0.0
2015-Sep-14 09:22N 37°57' E 023°38'0 0.0
2015-Sep-14 08:31N 37°57' E 023°38'0 0.0
2015-Sep-14 07:28N 37°57' E 023°38'10 0.9
2015-Sep-13 20:33N 37°47' E 023°41'5 0.6
2015-Sep-13 12:33N 37°42' E 023°41'15 2.7
2015-Sep-13 07:09N 37°57' E 023°38'0 0.0
2015-Sep-13 06:33N 37°57' E 023°38'0 0.0
2015-Sep-13 05:30N 37°57' E 023°38'0 0.0
2015-Sep-13 04:33N 37°57' E 023°38'0 0.0
2015-Sep-13 03:33N 37°57' E 023°38'0 0.0
2015-Sep-13 02:33N 37°57' E 023°38'0 0.0
2015-Sep-13 01:30N 37°57' E 023°38'0 0.0
2015-Sep-13 00:33N 37°57' E 023°38'0 0.0
2015-Sep-12 23:33N 37°57' E 023°38'0 0.0
2015-Sep-12 22:33N 37°57' E 023°38'0 0.0
2015-Sep-12 21:33N 37°57' E 023°38'7 7.4
2015-Sep-12 20:34N 37°50' E 023°40'6 0.7
2015-Sep-12 12:33N 37°44' E 023°40'1313.3
2015-Sep-12 11:33N 37°57' E 023°38'0 0.0
2015-Sep-12 10:33N 37°57' E 023°38'0 0.0
2015-Sep-12 09:33N 37°57' E 023°38'0 0.0
2015-Sep-12 08:33N 37°57' E 023°38'0 0.0
2015-Sep-12 07:33N 37°57' E 023°38'0 0.0
2015-Sep-12 06:30N 37°57' E 023°38'0 0.0
2015-Sep-12 05:33N 37°57' E 023°38'0 0.0
2015-Sep-12 04:33N 37°57' E 023°38'0 0.0
2015-Sep-12 03:27N 37°57' E 023°38'0 0.0
2015-Sep-12 02:33N 37°57' E 023°38'0 0.0
2015-Sep-12 01:33N 37°57' E 023°38'0 0.0
2015-Sep-12 00:33N 37°57' E 023°38'0 0.0
2015-Sep-11 23:33N 37°57' E 023°38'0 0.0
2015-Sep-11 22:30N 37°57' E 023°38'0 0.0
2015-Sep-11 21:30N 37°57' E 023°38'7 7.5
2015-Sep-11 20:33N 37°50' E 023°40'6 0.7
2015-Sep-11 12:33N 37°44' E 023°40'  
Track history (hours):
 
Tides and Currents Weather Stations Pressure Air Temp Water Temp Dewpoint Dewpoint Depression Visibility Wind Speed Wind Dir Waves Ship Positions

Flying Cat 3

Last reported at 2015-Sep-21 12:13 UTC. Time now 2016-Feb-08 06:09 UTC.
Position N 37°57' E 023°38'.
Warning: this ship's position is months out of date.

Length 48 m; draft 1.5 m.

Type: High speed craft. MMSI: 239552000.

Date/timePositionNaut miles runAvg speedWind from/ knotsBaromVisibWave heightAir tempDewpointWater temp
2015-Sep-21 12:13N 37°57' E 023°38'0 0.0
2015-Sep-21 11:28N 37°57' E 023°38'0 0.0
2015-Sep-21 10:28N 37°57' E 023°38'0 0.0
2015-Sep-21 09:31N 37°57' E 023°38'0 0.0
2015-Sep-21 08:31N 37°57' E 023°38'0 0.0
2015-Sep-21 07:31N 37°57' E 023°38'0 0.0
2015-Sep-21 06:31N 37°57' E 023°38'0 0.0
2015-Sep-21 05:28N 37°57' E 023°38'0 0.0
2015-Sep-21 04:31N 37°57' E 023°38'0 0.0
2015-Sep-21 03:31N 37°57' E 023°38'0 0.0
2015-Sep-21 02:31N 37°57' E 023°38'0 0.0
2015-Sep-21 01:31N 37°57' E 023°38'0 0.0
2015-Sep-21 00:28N 37°57' E 023°38'0 0.0
2015-Sep-20 23:28N 37°57' E 023°38'0 0.0
2015-Sep-20 22:31N 37°57' E 023°38'0 0.0
2015-Sep-20 21:31N 37°57' E 023°38'5 4.9
2015-Sep-20 20:33N 37°52' E 023°39'10 1.2
2015-Sep-20 12:33N 37°42' E 023°41'1514.7
2015-Sep-20 11:33N 37°57' E 023°38'0 0.0
2015-Sep-20 10:32N 37°57' E 023°38'0 0.0
2015-Sep-20 09:32N 37°57' E 023°38'0 0.0
2015-Sep-20 08:32N 37°57' E 023°38'0 0.0
2015-Sep-20 07:32N 37°57' E 023°38'0 0.0
2015-Sep-20 06:32N 37°57' E 023°38'0 0.0
2015-Sep-20 05:29N 37°57' E 023°38'0 0.0
2015-Sep-20 04:32N 37°57' E 023°38'0 0.0
2015-Sep-20 03:32N 37°57' E 023°38'0 0.0
2015-Sep-20 02:32N 37°57' E 023°38'0 0.0
2015-Sep-20 01:32N 37°57' E 023°38'0 0.0
2015-Sep-20 00:32N 37°57' E 023°38'0 0.0
2015-Sep-19 23:32N 37°57' E 023°38'0 0.0
2015-Sep-19 22:26N 37°57' E 023°38'0 0.0
2015-Sep-19 21:32N 37°57' E 023°38'4 3.8
2015-Sep-19 20:34N 37°53' E 023°39'12 1.4
2015-Sep-19 12:33N 37°42' E 023°41'1515.2
2015-Sep-19 11:33N 37°57' E 023°38'0 0.0
2015-Sep-19 10:32N 37°57' E 023°38'0 0.0
2015-Sep-19 09:32N 37°57' E 023°38'0 0.0
2015-Sep-19 08:32N 37°57' E 023°38'0 0.0
2015-Sep-19 07:32N 37°57' E 023°38'0 0.0
2015-Sep-19 06:32N 37°57' E 023°38'0 0.0
2015-Sep-19 05:32N 37°57' E 023°38'0 0.0
2015-Sep-19 04:32N 37°57' E 023°38'0 0.0
2015-Sep-19 03:32N 37°57' E 023°38'0 0.0
2015-Sep-19 02:32N 37°57' E 023°38'0 0.0
2015-Sep-19 01:29N 37°57' E 023°38'0 0.0
2015-Sep-19 00:26N 37°57' E 023°38'0 0.0
2015-Sep-18 23:32N 37°57' E 023°38'0 0.0
2015-Sep-18 22:23N 37°57' E 023°38'0 0.0
2015-Sep-18 21:32N 37°57' E 023°38'4 4.1
2015-Sep-18 20:34N 37°53' E 023°38'9 1.1
2015-Sep-18 12:33N 37°44' E 023°40'1312.8
2015-Sep-18 11:33N 37°57' E 023°38'0 0.0
2015-Sep-18 10:30N 37°57' E 023°38'0 0.0
2015-Sep-18 09:33N 37°57' E 023°38'0 0.0
2015-Sep-18 08:30N 37°57' E 023°38'0 0.0
2015-Sep-18 07:33N 37°57' E 023°38'0 0.0
2015-Sep-18 06:24N 37°57' E 023°38'0 0.0
2015-Sep-18 05:33N 37°57' E 023°38'0 0.0
2015-Sep-18 04:33N 37°57' E 023°38'0 0.0
2015-Sep-18 03:30N 37°57' E 023°38'0 0.0
2015-Sep-18 02:33N 37°57' E 023°38'0 0.0
2015-Sep-18 01:33N 37°57' E 023°38'0 0.0
2015-Sep-18 00:33N 37°57' E 023°38'0 0.0
2015-Sep-17 23:33N 37°57' E 023°38'0 0.0
2015-Sep-17 22:30N 37°57' E 023°38'0 0.0
2015-Sep-17 21:30N 37°57' E 023°38'4 4.8
2015-Sep-17 20:34N 37°52' E 023°38'9 1.1
2015-Sep-17 12:33N 37°43' E 023°41'1413.6
2015-Sep-17 11:34N 37°57' E 023°38'0 0.0
2015-Sep-17 08:30N 37°57' E 023°38'0 0.0
2015-Sep-17 07:30N 37°57' E 023°38'0 0.0
2015-Sep-17 06:30N 37°57' E 023°38'0 0.0
2015-Sep-17 05:33N 37°57' E 023°38'0 0.0
2015-Sep-17 04:30N 37°57' E 023°38'0 0.0
2015-Sep-17 03:27N 37°57' E 023°38'0 0.0
2015-Sep-17 02:30N 37°57' E 023°38'0 0.0
2015-Sep-17 01:30N 37°57' E 023°38'0 0.0
2015-Sep-17 00:33N 37°57' E 023°38'0 0.0
2015-Sep-16 23:33N 37°57' E 023°38'0 0.0
2015-Sep-16 22:33N 37°57' E 023°38'0 0.0
2015-Sep-16 21:33N 37°57' E 023°38'0 0.0
2015-Sep-16 20:33N 37°57' E 023°38'0 0.0
2015-Sep-16 19:30N 37°57' E 023°38'0 0.0
2015-Sep-16 18:33N 37°57' E 023°38'0 0.0
2015-Sep-16 17:33N 37°57' E 023°38'0 0.0
2015-Sep-16 16:30N 37°57' E 023°38'0 0.0
2015-Sep-16 15:30N 37°57' E 023°38'0 0.0
2015-Sep-16 14:33N 37°57' E 023°38'0 0.0
2015-Sep-16 13:24N 37°57' E 023°38'0 0.0
2015-Sep-16 12:33N 37°57' E 023°38'0 0.0
2015-Sep-16 11:33N 37°57' E 023°38'0 0.0
2015-Sep-16 10:33N 37°57' E 023°38'0 0.0
2015-Sep-16 09:33N 37°57' E 023°38'0 0.0
2015-Sep-16 08:33N 37°57' E 023°38'0 0.0
2015-Sep-16 07:30N 37°57' E 023°38'0 0.0
2015-Sep-16 06:27N 37°57' E 023°38'0 0.0
2015-Sep-16 05:33N 37°57' E 023°38'0 0.0
2015-Sep-16 04:30N 37°57' E 023°38'0 0.0
2015-Sep-16 03:30N 37°57' E 023°38'0 0.0
2015-Sep-16 02:33N 37°57' E 023°38'0 0.0
2015-Sep-16 01:33N 37°57' E 023°38'0 0.0
2015-Sep-16 00:33N 37°57' E 023°38'0 0.0
2015-Sep-15 23:33N 37°57' E 023°38'0 0.0
2015-Sep-15 22:30N 37°57' E 023°38'0 0.0
2015-Sep-15 21:33N 37°57' E 023°38'0 0.0
2015-Sep-15 20:33N 37°57' E 023°38'0 0.0
2015-Sep-15 19:33N 37°57' E 023°38'0 0.0
2015-Sep-15 18:33N 37°57' E 023°38'0 0.0
2015-Sep-15 17:30N 37°57' E 023°38'0 0.0
2015-Sep-15 16:33N 37°57' E 023°38'0 0.0
2015-Sep-15 15:33N 37°57' E 023°38'0 0.0
2015-Sep-15 14:33N 37°57' E 023°38'0 0.0
2015-Sep-15 13:33N 37°57' E 023°38'0 0.0
2015-Sep-15 12:33N 37°57' E 023°38'0 0.0
2015-Sep-15 11:33N 37°57' E 023°38'0 0.0
2015-Sep-15 10:33N 37°57' E 023°38'0 0.0
2015-Sep-15 09:30N 37°57' E 023°38'0 0.0
2015-Sep-15 08:33N 37°57' E 023°38'0 0.0
2015-Sep-15 07:33N 37°57' E 023°38'0 0.0
2015-Sep-15 06:33N 37°57' E 023°38'0 0.0
2015-Sep-15 05:33N 37°57' E 023°38'0 0.0
2015-Sep-15 04:33N 37°57' E 023°38'0 0.0
2015-Sep-15 03:24N 37°57' E 023°38'0 0.0
2015-Sep-15 02:33N 37°57' E 023°38'0 0.0
2015-Sep-15 01:33N 37°57' E 023°38'0 0.0
2015-Sep-15 00:33N 37°57' E 023°38'0 0.0
2015-Sep-14 23:30N 37°57' E 023°38'0 0.0
2015-Sep-14 22:33N 37°57' E 023°38'0 0.0
2015-Sep-14 21:30N 37°57' E 023°38'5 5.6
2015-Sep-14 20:33N 37°51' E 023°39'9 1.2
2015-Sep-14 12:33N 37°42' E 023°41'1514.8
2015-Sep-14 11:34N 37°57' E 023°38'0 0.0
2015-Sep-14 10:31N 37°57' E 023°38'0 0.0
2015-Sep-14 09:22N 37°57' E 023°38'0 0.0
2015-Sep-14 08:31N 37°57' E 023°38'0 0.0
2015-Sep-14 07:28N 37°57' E 023°38'10 0.9
2015-Sep-13 20:33N 37°47' E 023°41'5 0.6
2015-Sep-13 12:33N 37°42' E 023°41'15 2.7
2015-Sep-13 07:09N 37°57' E 023°38'0 0.0
2015-Sep-13 06:33N 37°57' E 023°38'0 0.0
2015-Sep-13 05:30N 37°57' E 023°38'0 0.0
2015-Sep-13 04:33N 37°57' E 023°38'0 0.0
2015-Sep-13 03:33N 37°57' E 023°38'0 0.0
2015-Sep-13 02:33N 37°57' E 023°38'0 0.0
2015-Sep-13 01:30N 37°57' E 023°38'0 0.0
2015-Sep-13 00:33N 37°57' E 023°38'0 0.0
2015-Sep-12 23:33N 37°57' E 023°38'0 0.0
2015-Sep-12 22:33N 37°57' E 023°38'0 0.0
2015-Sep-12 21:33N 37°57' E 023°38'7 7.4
2015-Sep-12 20:34N 37°50' E 023°40'6 0.7
2015-Sep-12 12:33N 37°44' E 023°40'1313.3
2015-Sep-12 11:33N 37°57' E 023°38'0 0.0
2015-Sep-12 10:33N 37°57' E 023°38'0 0.0
2015-Sep-12 09:33N 37°57' E 023°38'0 0.0
2015-Sep-12 08:33N 37°57' E 023°38'0 0.0
2015-Sep-12 07:33N 37°57' E 023°38'0 0.0
2015-Sep-12 06:30N 37°57' E 023°38'0 0.0
2015-Sep-12 05:33N 37°57' E 023°38'0 0.0
2015-Sep-12 04:33N 37°57' E 023°38'0 0.0
2015-Sep-12 03:27N 37°57' E 023°38'0 0.0
2015-Sep-12 02:33N 37°57' E 023°38'0 0.0
2015-Sep-12 01:33N 37°57' E 023°38'0 0.0
2015-Sep-12 00:33N 37°57' E 023°38'0 0.0
2015-Sep-11 23:33N 37°57' E 023°38'0 0.0
2015-Sep-11 22:30N 37°57' E 023°38'0 0.0
2015-Sep-11 21:30N 37°57' E 023°38'7 7.5
2015-Sep-11 20:33N 37°50' E 023°40'6 0.7
2015-Sep-11 12:33N 37°44' E 023°40'  

Dump ship's entire track history